sensor_id;sensor_type;location;lat;lon;timestamp;P1;durP1;ratioP1;P2;durP2;ratioP2
12814;SDS011;6472;52.328;13.070;2023-03-23T00:01:05;1.50;;;1.40;;
12814;SDS011;6472;52.328;13.070;2023-03-23T00:03:35;3.27;;;1.70;;
12814;SDS011;6472;52.328;13.070;2023-03-23T00:06:03;1.70;;;1.60;;
12814;SDS011;6472;52.328;13.070;2023-03-23T00:08:33;1.73;;;1.10;;
12814;SDS011;6472;52.328;13.070;2023-03-23T00:11:02;1.53;;;1.43;;
12814;SDS011;6472;52.328;13.070;2023-03-23T00:13:30;1.87;;;1.57;;
12814;SDS011;6472;52.328;13.070;2023-03-23T00:15:58;1.60;;;1.40;;
12814;SDS011;6472;52.328;13.070;2023-03-23T00:18:25;1.47;;;1.30;;
12814;SDS011;6472;52.328;13.070;2023-03-23T00:20:53;1.90;;;1.80;;
12814;SDS011;6472;52.328;13.070;2023-03-23T00:23:21;1.70;;;1.60;;
12814;SDS011;6472;52.328;13.070;2023-03-23T00:25:53;2.33;;;1.33;;
12814;SDS011;6472;52.328;13.070;2023-03-23T00:28:22;2.57;;;1.90;;
12814;SDS011;6472;52.328;13.070;2023-03-23T00:30:55;2.37;;;1.47;;
12814;SDS011;6472;52.328;13.070;2023-03-23T00:33:23;2.97;;;1.47;;
12814;SDS011;6472;52.328;13.070;2023-03-23T00:35:51;1.67;;;1.53;;
12814;SDS011;6472;52.328;13.070;2023-03-23T00:38:19;1.33;;;1.30;;
12814;SDS011;6472;52.328;13.070;2023-03-23T00:40:47;2.77;;;1.50;;
12814;SDS011;6472;52.328;13.070;2023-03-23T00:43:16;3.00;;;1.63;;
12814;SDS011;6472;52.328;13.070;2023-03-23T00:45:44;1.87;;;1.70;;
12814;SDS011;6472;52.328;13.070;2023-03-23T00:48:17;1.50;;;1.40;;
12814;SDS011;6472;52.328;13.070;2023-03-23T00:50:44;1.27;;;1.17;;
12814;SDS011;6472;52.328;13.070;2023-03-23T00:53:11;1.23;;;1.13;;
12814;SDS011;6472;52.328;13.070;2023-03-23T00:55:39;1.10;;;1.10;;
12814;SDS011;6472;52.328;13.070;2023-03-23T00:58:06;1.30;;;1.23;;
12814;SDS011;6472;52.328;13.070;2023-03-23T01:00:35;3.33;;;1.40;;
12814;SDS011;6472;52.328;13.070;2023-03-23T01:03:03;2.43;;;1.20;;
12814;SDS011;6472;52.328;13.070;2023-03-23T01:05:33;1.60;;;1.50;;
12814;SDS011;6472;52.328;13.070;2023-03-23T01:08:01;1.40;;;1.30;;
12814;SDS011;6472;52.328;13.070;2023-03-23T01:10:28;3.20;;;1.70;;
12814;SDS011;6472;52.328;13.070;2023-03-23T01:12:57;1.40;;;1.30;;
12814;SDS011;6472;52.328;13.070;2023-03-23T01:15:25;2.83;;;1.77;;
12814;SDS011;6472;52.328;13.070;2023-03-23T01:17:53;1.50;;;1.40;;
12814;SDS011;6472;52.328;13.070;2023-03-23T01:20:20;1.83;;;1.50;;
12814;SDS011;6472;52.328;13.070;2023-03-23T01:22:47;2.03;;;1.90;;
12814;SDS011;6472;52.328;13.070;2023-03-23T01:28:04;1.53;;;1.43;;
12814;SDS011;6472;52.328;13.070;2023-03-23T01:30:31;4.13;;;1.57;;
12814;SDS011;6472;52.328;13.070;2023-03-23T01:32:59;1.60;;;1.50;;
12814;SDS011;6472;52.328;13.070;2023-03-23T01:35:26;1.67;;;1.57;;
12814;SDS011;6472;52.328;13.070;2023-03-23T01:37:53;5.40;;;1.70;;
12814;SDS011;6472;52.328;13.070;2023-03-23T01:40:20;2.00;;;1.60;;
12814;SDS011;6472;52.328;13.070;2023-03-23T01:42:47;2.83;;;1.53;;
12814;SDS011;6472;52.328;13.070;2023-03-23T01:45:21;3.43;;;1.73;;
12814;SDS011;6472;52.328;13.070;2023-03-23T01:47:53;3.80;;;1.97;;
12814;SDS011;6472;52.328;13.070;2023-03-23T01:50:28;3.03;;;1.50;;
12814;SDS011;6472;52.328;13.070;2023-03-23T01:53:00;3.13;;;1.43;;
12814;SDS011;6472;52.328;13.070;2023-03-23T01:55:29;2.10;;;1.70;;
12814;SDS011;6472;52.328;13.070;2023-03-23T01:57:57;2.90;;;1.50;;
12814;SDS011;6472;52.328;13.070;2023-03-23T02:00:24;1.13;;;1.10;;
12814;SDS011;6472;52.328;13.070;2023-03-23T02:02:52;6.20;;;1.70;;
12814;SDS011;6472;52.328;13.070;2023-03-23T02:05:22;1.77;;;1.63;;
12814;SDS011;6472;52.328;13.070;2023-03-23T02:07:57;7.47;;;1.97;;
12814;SDS011;6472;52.328;13.070;2023-03-23T02:10:29;1.30;;;1.20;;
12814;SDS011;6472;52.328;13.070;2023-03-23T02:12:57;1.97;;;1.80;;
12814;SDS011;6472;52.328;13.070;2023-03-23T02:15:25;1.33;;;1.23;;
12814;SDS011;6472;52.328;13.070;2023-03-23T02:17:55;1.97;;;1.87;;
12814;SDS011;6472;52.328;13.070;2023-03-23T02:20:38;4.60;;;1.87;;
12814;SDS011;6472;52.328;13.070;2023-03-23T02:23:32;1.20;;;1.10;;
12814;SDS011;6472;52.328;13.070;2023-03-23T02:26:17;2.90;;;1.87;;
12814;SDS011;6472;52.328;13.070;2023-03-23T02:29:02;2.10;;;1.67;;
12814;SDS011;6472;52.328;13.070;2023-03-23T02:31:54;1.90;;;1.70;;
12814;SDS011;6472;52.328;13.070;2023-03-23T02:34:32;1.57;;;1.13;;
12814;SDS011;6472;52.328;13.070;2023-03-23T02:37:07;1.83;;;1.40;;
12814;SDS011;6472;52.328;13.070;2023-03-23T02:39:40;1.43;;;1.33;;
12814;SDS011;6472;52.328;13.070;2023-03-23T02:42:12;2.03;;;1.70;;
12814;SDS011;6472;52.328;13.070;2023-03-23T02:44:43;1.60;;;1.50;;
12814;SDS011;6472;52.328;13.070;2023-03-23T02:47:13;3.10;;;1.57;;
12814;SDS011;6472;52.328;13.070;2023-03-23T02:49:45;2.67;;;1.47;;
12814;SDS011;6472;52.328;13.070;2023-03-23T02:52:16;1.27;;;1.17;;
12814;SDS011;6472;52.328;13.070;2023-03-23T02:54:46;2.03;;;1.60;;
12814;SDS011;6472;52.328;13.070;2023-03-23T02:57:15;1.37;;;1.27;;
12814;SDS011;6472;52.328;13.070;2023-03-23T02:59:42;1.77;;;1.60;;
12814;SDS011;6472;52.328;13.070;2023-03-23T03:02:10;1.37;;;1.27;;
12814;SDS011;6472;52.328;13.070;2023-03-23T03:04:41;1.70;;;1.40;;
12814;SDS011;6472;52.328;13.070;2023-03-23T03:10:04;1.40;;;1.23;;
12814;SDS011;6472;52.328;13.070;2023-03-23T03:12:41;1.73;;;1.63;;
12814;SDS011;6472;52.328;13.070;2023-03-23T03:15:15;2.07;;;1.97;;
12814;SDS011;6472;52.328;13.070;2023-03-23T03:17:51;4.60;;;1.73;;
12814;SDS011;6472;52.328;13.070;2023-03-23T03:20:26;1.10;;;1.10;;
12814;SDS011;6472;52.328;13.070;2023-03-23T03:22:54;1.23;;;1.00;;
12814;SDS011;6472;52.328;13.070;2023-03-23T03:25:22;2.33;;;1.37;;
12814;SDS011;6472;52.328;13.070;2023-03-23T03:27:52;2.73;;;1.90;;
12814;SDS011;6472;52.328;13.070;2023-03-23T03:30:23;1.83;;;1.40;;
12814;SDS011;6472;52.328;13.070;2023-03-23T03:32:53;1.40;;;1.30;;
12814;SDS011;6472;52.328;13.070;2023-03-23T03:35:20;1.87;;;1.50;;
12814;SDS011;6472;52.328;13.070;2023-03-23T03:37:49;4.07;;;1.27;;
12814;SDS011;6472;52.328;13.070;2023-03-23T03:40:18;1.37;;;1.27;;
12814;SDS011;6472;52.328;13.070;2023-03-23T03:42:47;4.10;;;1.40;;
12814;SDS011;6472;52.328;13.070;2023-03-23T03:45:15;2.10;;;1.20;;
12814;SDS011;6472;52.328;13.070;2023-03-23T03:47:43;3.03;;;1.57;;
12814;SDS011;6472;52.328;13.070;2023-03-23T03:50:11;1.13;;;1.13;;
12814;SDS011;6472;52.328;13.070;2023-03-23T03:52:38;1.73;;;1.20;;
12814;SDS011;6472;52.328;13.070;2023-03-23T03:55:07;1.77;;;1.40;;
12814;SDS011;6472;52.328;13.070;2023-03-23T03:57:36;1.23;;;1.13;;
12814;SDS011;6472;52.328;13.070;2023-03-23T04:00:03;1.63;;;1.53;;
12814;SDS011;6472;52.328;13.070;2023-03-23T04:02:41;1.33;;;1.20;;
12814;SDS011;6472;52.328;13.070;2023-03-23T04:05:08;1.37;;;1.20;;
12814;SDS011;6472;52.328;13.070;2023-03-23T04:07:36;3.47;;;1.47;;
12814;SDS011;6472;52.328;13.070;2023-03-23T04:10:05;1.30;;;1.20;;
12814;SDS011;6472;52.328;13.070;2023-03-23T04:12:34;1.57;;;1.30;;
12814;SDS011;6472;52.328;13.070;2023-03-23T04:15:02;1.43;;;1.33;;
12814;SDS011;6472;52.328;13.070;2023-03-23T04:17:30;1.40;;;1.30;;
12814;SDS011;6472;52.328;13.070;2023-03-23T04:19:57;2.83;;;1.23;;
12814;SDS011;6472;52.328;13.070;2023-03-23T04:22:25;2.93;;;1.20;;
12814;SDS011;6472;52.328;13.070;2023-03-23T04:24:55;2.00;;;1.30;;
12814;SDS011;6472;52.328;13.070;2023-03-23T04:27:25;1.23;;;1.13;;
12814;SDS011;6472;52.328;13.070;2023-03-23T04:29:53;2.20;;;1.13;;
12814;SDS011;6472;52.328;13.070;2023-03-23T04:32:21;1.33;;;1.17;;
12814;SDS011;6472;52.328;13.070;2023-03-23T04:34:50;1.50;;;1.40;;
12814;SDS011;6472;52.328;13.070;2023-03-23T04:37:17;1.30;;;1.20;;
12814;SDS011;6472;52.328;13.070;2023-03-23T04:39:44;1.70;;;1.50;;
12814;SDS011;6472;52.328;13.070;2023-03-23T04:42:11;1.83;;;1.50;;
12814;SDS011;6472;52.328;13.070;2023-03-23T04:44:41;1.70;;;1.50;;
12814;SDS011;6472;52.328;13.070;2023-03-23T04:47:08;1.47;;;1.23;;
12814;SDS011;6472;52.328;13.070;2023-03-23T04:49:35;2.90;;;1.53;;
12814;SDS011;6472;52.328;13.070;2023-03-23T04:52:02;2.87;;;1.50;;
12814;SDS011;6472;52.328;13.070;2023-03-23T04:54:30;1.13;;;1.13;;
12814;SDS011;6472;52.328;13.070;2023-03-23T04:56:57;1.23;;;1.17;;
12814;SDS011;6472;52.328;13.070;2023-03-23T04:59:24;1.80;;;1.40;;
12814;SDS011;6472;52.328;13.070;2023-03-23T05:01:54;2.63;;;1.23;;
12814;SDS011;6472;52.328;13.070;2023-03-23T05:04:21;1.63;;;1.07;;
12814;SDS011;6472;52.328;13.070;2023-03-23T05:06:50;1.40;;;1.30;;
12814;SDS011;6472;52.328;13.070;2023-03-23T05:09:17;3.80;;;1.23;;
12814;SDS011;6472;52.328;13.070;2023-03-23T05:11:45;1.20;;;1.10;;
12814;SDS011;6472;52.328;13.070;2023-03-23T05:14:12;1.60;;;1.27;;
12814;SDS011;6472;52.328;13.070;2023-03-23T05:16:39;1.27;;;1.17;;
12814;SDS011;6472;52.328;13.070;2023-03-23T05:19:07;1.90;;;1.00;;
12814;SDS011;6472;52.328;13.070;2023-03-23T05:21:34;0.90;;;0.90;;
12814;SDS011;6472;52.328;13.070;2023-03-23T05:24:02;3.67;;;1.07;;
12814;SDS011;6472;52.328;13.070;2023-03-23T05:26:29;1.53;;;1.20;;
12814;SDS011;6472;52.328;13.070;2023-03-23T05:28:57;2.03;;;1.10;;
12814;SDS011;6472;52.328;13.070;2023-03-23T05:31:25;2.93;;;1.07;;
12814;SDS011;6472;52.328;13.070;2023-03-23T05:33:52;2.83;;;1.17;;
12814;SDS011;6472;52.328;13.070;2023-03-23T05:36:20;1.43;;;1.33;;
12814;SDS011;6472;52.328;13.070;2023-03-23T05:38:48;1.20;;;1.07;;
12814;SDS011;6472;52.328;13.070;2023-03-23T05:41:16;1.53;;;0.93;;
12814;SDS011;6472;52.328;13.070;2023-03-23T05:43:43;2.43;;;0.93;;
12814;SDS011;6472;52.328;13.070;2023-03-23T05:46:10;1.00;;;1.00;;
12814;SDS011;6472;52.328;13.070;2023-03-23T05:48:37;1.23;;;1.00;;
12814;SDS011;6472;52.328;13.070;2023-03-23T05:51:04;0.93;;;0.90;;
12814;SDS011;6472;52.328;13.070;2023-03-23T05:53:33;0.80;;;0.80;;
12814;SDS011;6472;52.328;13.070;2023-03-23T05:56:01;0.87;;;0.87;;
12814;SDS011;6472;52.328;13.070;2023-03-23T05:58:28;0.60;;;0.60;;
12814;SDS011;6472;52.328;13.070;2023-03-23T06:00:56;1.20;;;1.10;;
12814;SDS011;6472;52.328;13.070;2023-03-23T06:03:23;1.70;;;1.00;;
12814;SDS011;6472;52.328;13.070;2023-03-23T06:05:50;3.80;;;1.00;;
12814;SDS011;6472;52.328;13.070;2023-03-23T06:08:17;1.03;;;1.03;;
12814;SDS011;6472;52.328;13.070;2023-03-23T06:10:45;1.73;;;1.10;;
12814;SDS011;6472;52.328;13.070;2023-03-23T06:13:13;0.80;;;0.80;;
12814;SDS011;6472;52.328;13.070;2023-03-23T06:15:40;2.20;;;0.90;;
12814;SDS011;6472;52.328;13.070;2023-03-23T06:18:07;0.73;;;0.73;;
12814;SDS011;6472;52.328;13.070;2023-03-23T06:20:35;0.93;;;0.93;;
12814;SDS011;6472;52.328;13.070;2023-03-23T06:23:02;1.13;;;0.80;;
12814;SDS011;6472;52.328;13.070;2023-03-23T06:25:30;1.40;;;1.30;;
12814;SDS011;6472;52.328;13.070;2023-03-23T06:27:58;1.40;;;1.30;;
12814;SDS011;6472;52.328;13.070;2023-03-23T06:30:25;0.80;;;0.80;;
12814;SDS011;6472;52.328;13.070;2023-03-23T06:32:54;1.70;;;1.40;;
12814;SDS011;6472;52.328;13.070;2023-03-23T06:35:21;1.23;;;1.13;;
12814;SDS011;6472;52.328;13.070;2023-03-23T06:37:48;2.17;;;1.37;;
12814;SDS011;6472;52.328;13.070;2023-03-23T06:40:16;1.20;;;1.10;;
12814;SDS011;6472;52.328;13.070;2023-03-23T06:42:44;1.77;;;1.57;;
12814;SDS011;6472;52.328;13.070;2023-03-23T06:45:13;1.67;;;1.57;;
12814;SDS011;6472;52.328;13.070;2023-03-23T06:47:40;2.00;;;1.47;;
12814;SDS011;6472;52.328;13.070;2023-03-23T06:50:07;1.57;;;1.20;;
12814;SDS011;6472;52.328;13.070;2023-03-23T06:52:34;1.30;;;1.20;;
12814;SDS011;6472;52.328;13.070;2023-03-23T06:55:01;1.60;;;1.17;;
12814;SDS011;6472;52.328;13.070;2023-03-23T06:57:28;2.17;;;1.10;;
12814;SDS011;6472;52.328;13.070;2023-03-23T06:59:55;1.17;;;1.13;;
12814;SDS011;6472;52.328;13.070;2023-03-23T07:02:24;2.33;;;1.70;;
12814;SDS011;6472;52.328;13.070;2023-03-23T07:04:51;1.20;;;1.20;;
12814;SDS011;6472;52.328;13.070;2023-03-23T07:07:19;1.27;;;0.90;;
12814;SDS011;6472;52.328;13.070;2023-03-23T07:09:46;2.43;;;1.23;;
12814;SDS011;6472;52.328;13.070;2023-03-23T07:12:13;1.20;;;1.10;;
12814;SDS011;6472;52.328;13.070;2023-03-23T07:14:40;3.97;;;1.37;;
12814;SDS011;6472;52.328;13.070;2023-03-23T07:17:07;0.93;;;0.87;;
12814;SDS011;6472;52.328;13.070;2023-03-23T07:19:36;4.77;;;1.50;;
12814;SDS011;6472;52.328;13.070;2023-03-23T07:22:03;2.10;;;1.17;;
12814;SDS011;6472;52.328;13.070;2023-03-23T07:24:30;1.63;;;1.40;;
12814;SDS011;6472;52.328;13.070;2023-03-23T07:26:57;1.30;;;1.20;;
12814;SDS011;6472;52.328;13.070;2023-03-23T07:29:24;2.37;;;1.43;;
12814;SDS011;6472;52.328;13.070;2023-03-23T07:31:52;1.60;;;1.40;;
12814;SDS011;6472;52.328;13.070;2023-03-23T07:34:19;2.80;;;1.53;;
12814;SDS011;6472;52.328;13.070;2023-03-23T07:36:47;1.37;;;1.00;;
12814;SDS011;6472;52.328;13.070;2023-03-23T07:39:14;2.40;;;1.67;;
12814;SDS011;6472;52.328;13.070;2023-03-23T07:41:41;1.90;;;1.37;;
12814;SDS011;6472;52.328;13.070;2023-03-23T07:44:08;1.80;;;1.40;;
12814;SDS011;6472;52.328;13.070;2023-03-23T07:46:35;2.17;;;1.60;;
12814;SDS011;6472;52.328;13.070;2023-03-23T07:49:03;1.43;;;1.33;;
12814;SDS011;6472;52.328;13.070;2023-03-23T07:51:31;1.30;;;1.20;;
12814;SDS011;6472;52.328;13.070;2023-03-23T07:54:00;2.50;;;1.50;;
12814;SDS011;6472;52.328;13.070;2023-03-23T07:56:29;3.20;;;1.73;;
12814;SDS011;6472;52.328;13.070;2023-03-23T07:58:57;1.13;;;1.03;;
12814;SDS011;6472;52.328;13.070;2023-03-23T08:01:24;1.33;;;1.23;;
12814;SDS011;6472;52.328;13.070;2023-03-23T08:03:54;1.63;;;1.30;;
12814;SDS011;6472;52.328;13.070;2023-03-23T08:06:22;1.13;;;1.07;;
12814;SDS011;6472;52.328;13.070;2023-03-23T08:08:50;4.53;;;1.33;;
12814;SDS011;6472;52.328;13.070;2023-03-23T08:11:19;1.80;;;1.33;;
12814;SDS011;6472;52.328;13.070;2023-03-23T08:13:46;1.53;;;1.43;;
12814;SDS011;6472;52.328;13.070;2023-03-23T08:16:13;2.87;;;1.40;;
12814;SDS011;6472;52.328;13.070;2023-03-23T08:18:40;1.67;;;1.43;;
12814;SDS011;6472;52.328;13.070;2023-03-23T08:21:07;1.93;;;1.50;;
12814;SDS011;6472;52.328;13.070;2023-03-23T08:23:34;1.33;;;1.23;;
12814;SDS011;6472;52.328;13.070;2023-03-23T08:26:02;1.83;;;1.23;;
12814;SDS011;6472;52.328;13.070;2023-03-23T08:28:32;2.10;;;1.37;;
12814;SDS011;6472;52.328;13.070;2023-03-23T08:30:59;1.67;;;1.37;;
12814;SDS011;6472;52.328;13.070;2023-03-23T08:33:27;1.23;;;1.20;;
12814;SDS011;6472;52.328;13.070;2023-03-23T08:35:54;2.00;;;1.70;;
12814;SDS011;6472;52.328;13.070;2023-03-23T08:38:22;1.00;;;1.00;;
12814;SDS011;6472;52.328;13.070;2023-03-23T08:40:49;3.10;;;1.30;;
12814;SDS011;6472;52.328;13.070;2023-03-23T08:43:17;1.33;;;1.07;;
12814;SDS011;6472;52.328;13.070;2023-03-23T08:45:45;1.10;;;1.10;;
12814;SDS011;6472;52.328;13.070;2023-03-23T08:48:13;1.00;;;1.00;;
12814;SDS011;6472;52.328;13.070;2023-03-23T08:50:40;1.13;;;0.80;;
12814;SDS011;6472;52.328;13.070;2023-03-23T08:53:07;1.50;;;1.40;;
12814;SDS011;6472;52.328;13.070;2023-03-23T08:55:34;1.50;;;1.40;;
12814;SDS011;6472;52.328;13.070;2023-03-23T08:58:01;3.13;;;1.10;;
12814;SDS011;6472;52.328;13.070;2023-03-23T09:00:28;1.53;;;1.43;;
12814;SDS011;6472;52.328;13.070;2023-03-23T09:02:57;2.93;;;1.37;;
12814;SDS011;6472;52.328;13.070;2023-03-23T09:05:26;0.80;;;0.80;;
12814;SDS011;6472;52.328;13.070;2023-03-23T09:07:55;2.77;;;1.20;;
12814;SDS011;6472;52.328;13.070;2023-03-23T09:10:24;3.33;;;1.00;;
12814;SDS011;6472;52.328;13.070;2023-03-23T09:12:52;0.80;;;0.80;;
12814;SDS011;6472;52.328;13.070;2023-03-23T09:15:20;1.70;;;0.90;;
12814;SDS011;6472;52.328;13.070;2023-03-23T09:17:48;1.00;;;1.00;;
12814;SDS011;6472;52.328;13.070;2023-03-23T09:20:18;0.80;;;0.80;;
12814;SDS011;6472;52.328;13.070;2023-03-23T09:22:49;0.80;;;0.80;;
12814;SDS011;6472;52.328;13.070;2023-03-23T09:25:18;1.30;;;0.80;;
12814;SDS011;6472;52.328;13.070;2023-03-23T09:27:48;1.13;;;1.10;;
12814;SDS011;6472;52.328;13.070;2023-03-23T09:30:18;0.97;;;0.73;;
12814;SDS011;6472;52.328;13.070;2023-03-23T09:32:46;1.07;;;1.00;;
12814;SDS011;6472;52.328;13.070;2023-03-23T09:35:14;0.93;;;0.80;;
12814;SDS011;6472;52.328;13.070;2023-03-23T09:37:44;1.77;;;0.93;;
12814;SDS011;6472;52.328;13.070;2023-03-23T09:40:12;0.90;;;0.90;;
12814;SDS011;6472;52.328;13.070;2023-03-23T09:42:56;1.40;;;1.20;;
12814;SDS011;6472;52.328;13.070;2023-03-23T09:45:35;0.70;;;0.70;;
12814;SDS011;6472;52.328;13.070;2023-03-23T09:48:14;1.23;;;1.13;;
12814;SDS011;6472;52.328;13.070;2023-03-23T09:51:03;1.07;;;0.90;;
12814;SDS011;6472;52.328;13.070;2023-03-23T09:53:39;0.80;;;0.80;;
12814;SDS011;6472;52.328;13.070;2023-03-23T09:56:09;0.50;;;0.50;;
12814;SDS011;6472;52.328;13.070;2023-03-23T09:58:42;1.10;;;1.00;;
12814;SDS011;6472;52.328;13.070;2023-03-23T10:01:14;1.10;;;1.00;;
12814;SDS011;6472;52.328;13.070;2023-03-23T10:03:46;1.17;;;0.80;;
12814;SDS011;6472;52.328;13.070;2023-03-23T10:06:14;1.63;;;1.00;;
12814;SDS011;6472;52.328;13.070;2023-03-23T10:08:45;3.40;;;1.23;;
12814;SDS011;6472;52.328;13.070;2023-03-23T10:11:16;0.90;;;0.90;;
12814;SDS011;6472;52.328;13.070;2023-03-23T10:13:55;0.80;;;0.70;;
12814;SDS011;6472;52.328;13.070;2023-03-23T10:16:34;0.77;;;0.60;;
12814;SDS011;6472;52.328;13.070;2023-03-23T10:19:09;0.80;;;0.80;;
12814;SDS011;6472;52.328;13.070;2023-03-23T10:21:40;0.80;;;0.80;;
12814;SDS011;6472;52.328;13.070;2023-03-23T10:24:26;1.70;;;1.27;;
12814;SDS011;6472;52.328;13.070;2023-03-23T10:27:01;2.23;;;0.70;;
12814;SDS011;6472;52.328;13.070;2023-03-23T10:29:35;3.70;;;0.90;;
12814;SDS011;6472;52.328;13.070;2023-03-23T10:32:08;0.97;;;0.80;;
12814;SDS011;6472;52.328;13.070;2023-03-23T10:34:40;1.40;;;0.97;;
12814;SDS011;6472;52.328;13.070;2023-03-23T10:37:11;1.07;;;1.00;;
12814;SDS011;6472;52.328;13.070;2023-03-23T10:39:46;0.83;;;0.80;;
12814;SDS011;6472;52.328;13.070;2023-03-23T10:42:26;1.27;;;0.80;;
12814;SDS011;6472;52.328;13.070;2023-03-23T10:44:55;1.03;;;1.00;;
12814;SDS011;6472;52.328;13.070;2023-03-23T10:47:24;1.07;;;0.90;;
12814;SDS011;6472;52.328;13.070;2023-03-23T10:49:53;1.43;;;0.90;;
12814;SDS011;6472;52.328;13.070;2023-03-23T10:52:27;4.27;;;0.80;;
12814;SDS011;6472;52.328;13.070;2023-03-23T10:55:05;1.70;;;0.80;;
12814;SDS011;6472;52.328;13.070;2023-03-23T10:57:35;1.13;;;0.90;;
12814;SDS011;6472;52.328;13.070;2023-03-23T11:00:04;1.40;;;1.20;;
12814;SDS011;6472;52.328;13.070;2023-03-23T11:02:38;0.97;;;0.90;;
12814;SDS011;6472;52.328;13.070;2023-03-23T11:05:15;1.37;;;1.27;;
12814;SDS011;6472;52.328;13.070;2023-03-23T11:07:48;2.30;;;1.13;;
12814;SDS011;6472;52.328;13.070;2023-03-23T11:10:20;0.63;;;0.63;;
12814;SDS011;6472;52.328;13.070;2023-03-23T11:12:49;1.93;;;0.90;;
12814;SDS011;6472;52.328;13.070;2023-03-23T11:15:22;1.00;;;1.00;;
12814;SDS011;6472;52.328;13.070;2023-03-23T11:17:56;1.80;;;1.00;;
12814;SDS011;6472;52.328;13.070;2023-03-23T11:20:28;0.90;;;0.90;;
12814;SDS011;6472;52.328;13.070;2023-03-23T11:23:01;0.97;;;0.90;;
12814;SDS011;6472;52.328;13.070;2023-03-23T11:25:39;1.27;;;1.17;;
12814;SDS011;6472;52.328;13.070;2023-03-23T11:28:21;2.00;;;1.30;;
12814;SDS011;6472;52.328;13.070;2023-03-23T11:30:52;1.80;;;0.97;;
12814;SDS011;6472;52.328;13.070;2023-03-23T11:33:21;1.03;;;0.90;;
12814;SDS011;6472;52.328;13.070;2023-03-23T11:35:50;0.83;;;0.83;;
12814;SDS011;6472;52.328;13.070;2023-03-23T11:38:20;2.87;;;1.20;;
12814;SDS011;6472;52.328;13.070;2023-03-23T11:40:52;2.07;;;1.13;;
12814;SDS011;6472;52.328;13.070;2023-03-23T11:43:20;1.20;;;1.10;;
12814;SDS011;6472;52.328;13.070;2023-03-23T11:45:51;1.63;;;0.90;;
12814;SDS011;6472;52.328;13.070;2023-03-23T11:48:27;0.80;;;0.77;;
12814;SDS011;6472;52.328;13.070;2023-03-23T11:51:01;0.67;;;0.67;;
12814;SDS011;6472;52.328;13.070;2023-03-23T11:53:33;0.67;;;0.60;;
12814;SDS011;6472;52.328;13.070;2023-03-23T11:56:13;1.77;;;0.88;;
12814;SDS011;6472;52.328;13.070;2023-03-23T11:58:45;1.00;;;0.70;;
12814;SDS011;6472;52.328;13.070;2023-03-23T12:01:15;0.70;;;0.70;;
12814;SDS011;6472;52.328;13.070;2023-03-23T12:06:51;0.82;;;0.80;;
12814;SDS011;6472;52.328;13.070;2023-03-23T12:09:30;0.70;;;0.70;;
12814;SDS011;6472;52.328;13.070;2023-03-23T12:12:11;2.10;;;1.17;;
12814;SDS011;6472;52.328;13.070;2023-03-23T12:14:45;0.97;;;0.80;;
12814;SDS011;6472;52.328;13.070;2023-03-23T12:17:20;1.87;;;1.07;;
12814;SDS011;6472;52.328;13.070;2023-03-23T12:19:59;0.95;;;0.80;;
12814;SDS011;6472;52.328;13.070;2023-03-23T12:22:46;0.63;;;0.63;;
12814;SDS011;6472;52.328;13.070;2023-03-23T12:25:30;0.70;;;0.70;;
12814;SDS011;6472;52.328;13.070;2023-03-23T12:28:16;2.13;;;1.10;;
12814;SDS011;6472;52.328;13.070;2023-03-23T12:30:53;4.40;;;0.97;;
12814;SDS011;6472;52.328;13.070;2023-03-23T12:33:27;2.63;;;1.02;;
12814;SDS011;6472;52.328;13.070;2023-03-23T12:36:08;0.70;;;0.70;;
12814;SDS011;6472;52.328;13.070;2023-03-23T12:38:44;2.05;;;0.63;;
12814;SDS011;6472;52.328;13.070;2023-03-23T12:41:25;0.88;;;0.77;;
12814;SDS011;6472;52.328;13.070;2023-03-23T12:43:58;1.05;;;0.95;;
12814;SDS011;6472;52.328;13.070;2023-03-23T12:46:37;1.35;;;0.95;;
12814;SDS011;6472;52.328;13.070;2023-03-23T12:49:26;1.80;;;1.10;;
12814;SDS011;6472;52.328;13.070;2023-03-23T12:51:57;0.73;;;0.73;;
12814;SDS011;6472;52.328;13.070;2023-03-23T12:54:33;0.98;;;0.95;;
12814;SDS011;6472;52.328;13.070;2023-03-23T12:57:04;0.90;;;0.80;;
12814;SDS011;6472;52.328;13.070;2023-03-23T12:59:39;2.65;;;0.82;;
12814;SDS011;6472;52.328;13.070;2023-03-23T13:02:12;1.20;;;1.08;;
12814;SDS011;6472;52.328;13.070;2023-03-23T13:04:46;1.50;;;1.00;;
12814;SDS011;6472;52.328;13.070;2023-03-23T13:07:17;0.80;;;0.80;;
12814;SDS011;6472;52.328;13.070;2023-03-23T13:09:49;1.10;;;1.00;;
12814;SDS011;6472;52.328;13.070;2023-03-23T13:12:20;3.78;;;1.00;;
12814;SDS011;6472;52.328;13.070;2023-03-23T13:14:53;2.22;;;1.05;;
12814;SDS011;6472;52.328;13.070;2023-03-23T13:17:28;1.05;;;0.77;;
12814;SDS011;6472;52.328;13.070;2023-03-23T13:20:14;2.95;;;0.80;;
12814;SDS011;6472;52.328;13.070;2023-03-23T13:22:58;2.90;;;1.10;;
12814;SDS011;6472;52.328;13.070;2023-03-23T13:25:36;4.10;;;1.08;;
12814;SDS011;6472;52.328;13.070;2023-03-23T13:30:54;3.08;;;0.80;;
12814;SDS011;6472;52.328;13.070;2023-03-23T13:33:23;2.13;;;0.95;;
12814;SDS011;6472;52.328;13.070;2023-03-23T13:35:50;1.48;;;1.00;;
12814;SDS011;6472;52.328;13.070;2023-03-23T13:38:21;2.58;;;0.85;;
12814;SDS011;6472;52.328;13.070;2023-03-23T13:40:53;0.98;;;0.98;;
12814;SDS011;6472;52.328;13.070;2023-03-23T13:43:25;1.10;;;0.80;;
12814;SDS011;6472;52.328;13.070;2023-03-23T13:46:06;1.95;;;0.80;;
12814;SDS011;6472;52.328;13.070;2023-03-23T13:48:45;1.45;;;0.80;;
12814;SDS011;6472;52.328;13.070;2023-03-23T13:51:24;0.93;;;0.88;;
12814;SDS011;6472;52.328;13.070;2023-03-23T13:54:05;2.50;;;1.02;;
12814;SDS011;6472;52.328;13.070;2023-03-23T13:56:52;1.33;;;0.88;;
12814;SDS011;6472;52.328;13.070;2023-03-23T13:59:34;0.98;;;0.77;;
12814;SDS011;6472;52.328;13.070;2023-03-23T14:02:29;0.85;;;0.70;;
12814;SDS011;6472;52.328;13.070;2023-03-23T14:05:08;0.80;;;0.80;;
12814;SDS011;6472;52.328;13.070;2023-03-23T14:10:21;3.35;;;0.90;;
12814;SDS011;6472;52.328;13.070;2023-03-23T14:12:49;0.70;;;0.70;;
12814;SDS011;6472;52.328;13.070;2023-03-23T14:15:19;0.65;;;0.65;;
12814;SDS011;6472;52.328;13.070;2023-03-23T14:17:48;0.85;;;0.80;;
12814;SDS011;6472;52.328;13.070;2023-03-23T14:20:20;0.93;;;0.90;;
12814;SDS011;6472;52.328;13.070;2023-03-23T14:22:55;1.63;;;0.93;;
12814;SDS011;6472;52.328;13.070;2023-03-23T14:25:26;2.70;;;0.80;;
12814;SDS011;6472;52.328;13.070;2023-03-23T14:27:55;2.53;;;0.73;;
12814;SDS011;6472;52.328;13.070;2023-03-23T14:30:23;0.80;;;0.80;;
12814;SDS011;6472;52.328;13.070;2023-03-23T14:32:53;0.70;;;0.70;;
12814;SDS011;6472;52.328;13.070;2023-03-23T14:35:34;1.50;;;0.70;;
12814;SDS011;6472;52.328;13.070;2023-03-23T14:38:03;1.07;;;0.97;;
12814;SDS011;6472;52.328;13.070;2023-03-23T14:40:33;1.03;;;0.90;;
12814;SDS011;6472;52.328;13.070;2023-03-23T14:43:00;0.97;;;0.80;;
12814;SDS011;6472;52.328;13.070;2023-03-23T14:45:27;2.23;;;0.80;;
12814;SDS011;6472;52.328;13.070;2023-03-23T14:47:57;1.27;;;0.57;;
12814;SDS011;6472;52.328;13.070;2023-03-23T14:50:27;0.73;;;0.60;;
12814;SDS011;6472;52.328;13.070;2023-03-23T14:53:00;0.93;;;0.93;;
12814;SDS011;6472;52.328;13.070;2023-03-23T14:55:35;1.20;;;1.10;;
12814;SDS011;6472;52.328;13.070;2023-03-23T14:58:06;0.75;;;0.75;;
12814;SDS011;6472;52.328;13.070;2023-03-23T15:00:35;3.03;;;0.63;;
12814;SDS011;6472;52.328;13.070;2023-03-23T15:03:17;3.10;;;1.10;;
12814;SDS011;6472;52.328;13.070;2023-03-23T15:05:46;1.20;;;0.75;;
12814;SDS011;6472;52.328;13.070;2023-03-23T15:08:18;0.95;;;0.70;;
12814;SDS011;6472;52.328;13.070;2023-03-23T15:10:53;0.90;;;0.85;;
12814;SDS011;6472;52.328;13.070;2023-03-23T15:13:21;0.60;;;0.60;;
12814;SDS011;6472;52.328;13.070;2023-03-23T15:18:33;1.08;;;0.70;;
12814;SDS011;6472;52.328;13.070;2023-03-23T15:21:09;5.05;;;0.90;;
12814;SDS011;6472;52.328;13.070;2023-03-23T15:23:42;0.88;;;0.70;;
12814;SDS011;6472;52.328;13.070;2023-03-23T15:26:17;1.48;;;0.70;;